Time;durP1;ratioP1;P1;durP2;ratioP2;P2;SDS_P1;SDS_P2;PMS_P1;PMS_P2;Temp;Humidity;BMP_temperature;BMP_pressure;BME280_temperature;BME280_humidity;BME280_pressure;Samples;Min_cycle;Max_cycle;Signal;HPM_P1;HPM_P2
2024/03/23 00:00:29;;;;;;;7.88;7.07;;;;;;;10.32;71.83;99685.97;2503708;28;20114;-83
2024/03/23 00:01:43;;;;;;;7.72;6.95;;;;;;;10.34;72.06;99676.38;2501570;28;20042;-82
2024/03/23 00:02:56;;;;;;;9.65;8.15;;;;;;;10.38;71.63;99670.19;2513364;28;20051;-83
2024/03/23 00:04:09;;;;;;;10.68;8.02;;;;;;;10.41;71.36;99664.06;2499971;28;20046;-83
2024/03/23 00:05:22;;;;;;;15.38;7.68;;;;;;;10.44;71.67;99667.44;2494235;28;20055;-81
2024/03/23 00:06:35;;;;;;;11.40;7.50;;;;;;;10.47;71.56;99656.06;2484465;29;20473;-84
2024/03/23 00:07:50;;;;;;;10.90;8.05;;;;;;;10.51;71.81;99669.88;2491710;28;20067;-82
2024/03/23 00:09:03;;;;;;;11.45;8.93;;;;;;;10.51;71.50;99662.06;2495570;28;20090;-82
2024/03/23 00:10:17;;;;;;;10.15;7.68;;;;;;;10.53;71.47;99660.28;2493176;28;20031;-83
2024/03/23 00:11:30;;;;;;;8.07;7.28;;;;;;;10.54;71.50;99655.03;2495364;28;20036;-82
2024/03/23 00:12:43;;;;;;;8.23;7.30;;;;;;;10.56;71.53;99657.59;2505127;28;20038;-81
2024/03/23 00:13:57;;;;;;;7.53;6.38;;;;;;;10.56;71.42;99652.38;2505792;28;20105;-83
2024/03/23 00:15:10;;;;;;;13.20;6.53;;;;;;;10.56;71.39;99655.88;2502299;28;20093;-83
2024/03/23 00:16:25;;;;;;;8.98;7.78;;;;;;;10.57;71.39;99643.66;2502278;28;20034;-83
2024/03/23 00:17:38;;;;;;;12.45;7.88;;;;;;;10.56;71.63;99636.72;2500015;28;20022;-83
2024/03/23 00:18:52;;;;;;;9.38;7.60;;;;;;;10.56;71.37;99635.00;2503293;28;20029;-80
2024/03/23 00:20:05;;;;;;;7.32;6.63;;;;;;;10.55;71.49;99642.84;2507960;28;21110;-81
2024/03/23 00:21:18;;;;;;;11.95;8.30;;;;;;;10.52;71.54;99640.31;2510183;28;20132;-83
2024/03/23 00:22:32;;;;;;;9.35;7.40;;;;;;;10.50;71.50;99650.78;2498050;28;20075;-84
2024/03/23 00:23:45;;;;;;;7.18;6.38;;;;;;;10.47;71.60;99641.28;2502526;28;20058;-81
2024/03/23 00:24:58;;;;;;;7.65;6.82;;;;;;;10.46;71.62;99643.94;2510278;28;20043;-83
2024/03/23 00:26:11;;;;;;;12.10;7.43;;;;;;;10.45;71.87;99632.66;2509292;28;20027;-82
2024/03/23 00:27:25;;;;;;;10.07;7.70;;;;;;;10.47;71.32;99633.44;2503305;28;20066;-81
2024/03/23 00:28:38;;;;;;;9.82;7.10;;;;;;;10.50;71.47;99626.44;2502578;28;20070;-81
2024/03/23 00:29:51;;;;;;;8.15;7.38;;;;;;;10.51;71.47;99628.16;2494131;28;22468;-81
2024/03/23 00:31:04;;;;;;;9.68;7.53;;;;;;;10.52;71.26;99624.66;2499554;28;20030;-83
2024/03/23 00:32:17;;;;;;;9.20;7.25;;;;;;;10.53;71.30;99618.53;2500400;28;20050;-82
2024/03/23 00:33:31;;;;;;;13.02;7.30;;;;;;;10.53;71.35;99613.31;2509999;28;20021;-83
2024/03/23 00:34:44;;;;;;;8.18;6.50;;;;;;;10.51;71.23;99600.34;2504684;28;20027;-83
2024/03/23 00:35:57;;;;;;;13.18;6.22;;;;;;;10.50;71.32;99601.22;2498531;28;20026;-82
2024/03/23 00:37:11;;;;;;;12.40;7.60;;;;;;;10.51;71.18;99604.66;2495381;28;20135;-83
2024/03/23 00:38:24;;;;;;;11.57;7.97;;;;;;;10.50;71.17;99613.41;2501002;28;20042;-81
2024/03/23 00:39:38;;;;;;;8.45;7.00;;;;;;;10.50;71.25;99613.41;2502267;28;20039;-82
2024/03/23 00:40:54;;;;;;;6.88;6.28;;;;;;;10.46;71.15;99599.59;2493472;28;20042;-83
2024/03/23 00:42:07;;;;;;;6.15;5.53;;;;;;;10.44;70.99;99604.84;2501009;28;20118;-80
2024/03/23 00:43:22;;;;;;;8.63;6.95;;;;;;;10.43;71.04;99608.34;2498854;28;20039;-79
2024/03/23 00:44:36;;;;;;;11.98;7.72;;;;;;;10.44;71.15;99606.59;2509414;28;20043;-86
2024/03/23 00:45:49;;;;;;;10.10;7.75;;;;;;;10.43;71.20;99592.69;2505375;28;20499;-82
2024/03/23 00:47:02;;;;;;;8.40;7.20;;;;;;;10.43;71.30;99597.06;2498856;28;20027;-82
2024/03/23 00:48:16;;;;;;;7.93;7.07;;;;;;;10.42;71.30;99595.34;2498404;28;20401;-82
2024/03/23 00:49:29;;;;;;;7.45;6.75;;;;;;;10.43;71.36;99597.91;2509411;28;20030;-81
2024/03/23 00:50:42;;;;;;;12.48;7.85;;;;;;;10.44;71.25;99603.97;2507469;28;20031;-80
2024/03/23 00:51:55;;;;;;;6.97;6.38;;;;;;;10.44;71.47;99612.66;2498699;28;20046;-83
2024/03/23 00:53:08;;;;;;;8.52;6.95;;;;;;;10.46;71.42;99603.06;2499128;28;20035;-82
2024/03/23 00:54:22;;;;;;;10.20;6.45;;;;;;;10.50;71.43;99606.44;2500213;28;20014;-81
2024/03/23 00:55:35;;;;;;;7.22;6.63;;;;;;;10.54;71.38;99596.78;2508998;28;20116;-83
2024/03/23 00:56:48;;;;;;;8.15;7.25;;;;;;;10.57;71.11;99596.72;2495081;28;20000;-80
2024/03/23 00:58:01;;;;;;;9.18;8.38;;;;;;;10.61;70.75;99590.50;2503058;28;20038;-81
2024/03/23 00:59:15;;;;;;;6.07;4.85;;;;;;;10.64;70.70;99580.84;2508900;28;20011;-81
2024/03/23 01:00:28;;;;;;;9.73;6.97;;;;;;;10.68;70.71;99576.41;2512646;28;20026;-81
2024/03/23 01:01:41;;;;;;;6.97;5.55;;;;;;;10.69;70.21;99565.94;2506069;28;20031;-81
2024/03/23 01:02:54;;;;;;;8.18;6.10;;;;;;;10.72;69.95;99559.78;2505788;28;20027;-81
2024/03/23 01:04:08;;;;;;;7.78;5.78;;;;;;;10.74;69.90;99550.16;2502034;28;20034;-82
2024/03/23 01:05:21;;;;;;;7.07;5.38;;;;;;;10.75;69.81;99557.09;2494720;28;20035;-83
2024/03/23 01:06:34;;;;;;;9.70;5.47;;;;;;;10.74;69.72;99555.38;2505713;28;20084;-82
2024/03/23 01:07:47;;;;;;;6.57;5.15;;;;;;;10.73;69.36;99558.88;2497867;28;20031;-82
2024/03/23 01:09:00;;;;;;;7.07;5.72;;;;;;;10.70;69.35;99564.19;2492069;28;20030;-83
2024/03/23 01:10:14;;;;;;;8.32;6.60;;;;;;;10.67;69.54;99575.56;2492884;28;20038;-83
2024/03/23 01:11:27;;;;;;;33.40;29.42;;;;;;;10.63;69.45;99573.06;2488476;28;20126;-84
2024/03/23 01:12:40;;;;;;;16.23;9.90;;;;;;;10.60;69.85;99574.00;2500991;28;20468;-81
2024/03/23 01:13:55;;;;;;;8.20;7.00;;;;;;;10.58;69.88;99567.09;2500745;28;20066;-82
2024/03/23 01:15:09;;;;;;;8.70;5.50;;;;;;;10.59;69.82;99548.81;2503374;28;20075;-83
2024/03/23 01:16:22;;;;;;;11.10;5.60;;;;;;;10.59;69.85;99542.75;2500401;28;20559;-82
2024/03/23 01:17:35;;;;;;;8.65;6.32;;;;;;;10.59;70.03;99553.19;2501929;28;20022;-84
2024/03/23 01:18:49;;;;;;;7.00;6.20;;;;;;;10.58;69.76;99556.66;2486671;29;20540;-83
2024/03/23 01:20:02;;;;;;;8.57;7.18;;;;;;;10.54;69.80;99547.22;2496332;28;20042;-82
2024/03/23 01:21:16;;;;;;;7.13;6.40;;;;;;;10.48;69.64;99562.13;2497848;28;20019;-84
2024/03/23 01:22:29;;;;;;;6.75;5.75;;;;;;;10.45;69.92;99569.16;2492494;28;20023;-83
2024/03/23 01:23:42;;;;;;;6.30;5.15;;;;;;;10.41;69.85;99562.34;2483076;28;20062;-82
2024/03/23 01:24:55;;;;;;;8.85;6.57;;;;;;;10.41;69.82;99567.56;2497036;28;20508;-83
2024/03/23 01:26:09;;;;;;;8.68;5.63;;;;;;;10.39;70.00;99570.19;2495613;28;20490;-83
2024/03/23 01:27:23;;;;;;;7.32;6.60;;;;;;;10.41;69.89;99565.78;2492110;28;20510;-81
2024/03/23 01:28:36;;;;;;;6.13;4.90;;;;;;;10.44;69.85;99557.88;2494980;28;20022;-82
2024/03/23 01:29:52;;;;;;;7.97;6.40;;;;;;;10.49;69.78;99555.16;2499046;28;20051;-81
2024/03/23 01:31:05;;;;;;;15.50;12.02;;;;;;;10.55;69.43;99549.78;2499457;28;20027;-81
2024/03/23 01:32:19;;;;;;;6.80;5.88;;;;;;;10.61;69.11;99544.41;2500133;28;20030;-83
2024/03/23 01:33:32;;;;;;;7.65;6.10;;;;;;;10.67;69.05;99540.78;2501765;28;20114;-81
2024/03/23 01:34:45;;;;;;;11.85;6.75;;;;;;;10.72;68.86;99546.72;2500863;28;20034;-82
2024/03/23 01:35:58;;;;;;;5.72;5.20;;;;;;;10.78;68.33;99548.31;2502874;28;20035;-84
2024/03/23 01:37:11;;;;;;;8.43;4.82;;;;;;;10.83;68.43;99549.03;2489173;28;20125;-83
2024/03/23 01:38:25;;;;;;;5.65;5.03;;;;;;;10.87;67.88;99545.47;2493039;28;20085;-82
2024/03/23 01:39:38;;;;;;;7.32;4.88;;;;;;;10.90;67.71;99545.38;2501374;28;20031;-84
2024/03/23 01:40:57;;;;;;;7.40;5.25;;;;;;;10.92;67.75;99543.59;2499610;28;20066;-83
2024/03/23 01:42:10;;;;;;;8.30;5.20;;;;;;;10.97;67.56;99540.81;2498592;28;20018;-83
2024/03/23 01:43:23;;;;;;;5.88;4.88;;;;;;;11.04;67.34;99539.75;2500287;28;20563;-82
2024/03/23 01:44:37;;;;;;;5.43;4.20;;;;;;;11.11;66.94;99530.84;2500463;28;20109;-83
2024/03/23 01:45:52;;;;;;;9.00;6.68;;;;;;;11.14;66.81;99529.00;2491897;28;20031;-82
2024/03/23 01:47:06;;;;;;;6.55;4.85;;;;;;;11.19;66.79;99534.09;2493982;28;20092;-82
2024/03/23 01:48:20;;;;;;;5.68;4.88;;;;;;;11.24;66.60;99528.75;2505545;28;20014;-82
2024/03/23 01:49:34;;;;;;;7.97;5.45;;;;;;;11.28;66.25;99526.00;2508133;28;20035;-81
2024/03/23 01:50:48;;;;;;;8.55;4.95;;;;;;;11.30;66.13;99526.78;2498312;28;20067;-81
2024/03/23 01:52:02;;;;;;;7.10;4.95;;;;;;;11.34;66.07;99527.56;2490195;28;20047;-82
2024/03/23 01:53:21;;;;;;;8.70;5.10;;;;;;;11.39;65.89;99537.91;2490318;28;20026;-82
2024/03/23 01:54:35;;;;;;;8.15;5.57;;;;;;;11.42;65.71;99536.03;2495468;28;20027;-84
2024/03/23 01:55:50;;;;;;;5.32;4.68;;;;;;;11.46;65.32;99527.22;2490907;28;20476;-85
2024/03/23 01:57:04;;;;;;;28.83;25.75;;;;;;;11.50;65.79;99518.38;2498978;28;20114;-82
2024/03/23 01:58:17;;;;;;;13.68;11.15;;;;;;;11.54;65.34;99519.16;2493514;28;20034;-82
2024/03/23 01:59:30;;;;;;;6.70;5.97;;;;;;;11.57;65.36;99521.66;2489113;28;20067;-84
2024/03/23 02:00:44;;;;;;;7.00;5.00;;;;;;;11.59;65.25;99519.88;2489987;29;20170;-83
2024/03/23 02:01:57;;;;;;;5.40;4.68;;;;;;;11.61;65.14;99519.78;2507404;28;20030;-85
2024/03/23 02:03:24;;;;;;;5.63;5.13;;;;;;;11.64;65.09;99517.09;2507368;28;20027;-83
2024/03/23 02:04:37;;;;;;;6.78;4.82;;;;;;;11.63;64.88;99516.22;2513450;28;20061;-83
2024/03/23 02:05:51;;;;;;;4.47;3.88;;;;;;;11.63;64.91;99515.38;2508151;28;20026;-83
2024/03/23 02:07:07;;;;;;;5.65;4.97;;;;;;;11.62;64.77;99511.06;2517175;28;20026;-84
2024/03/23 02:08:21;;;;;;;6.55;3.88;;;;;;;11.60;64.86;99507.66;2501958;28;20028;-83
2024/03/23 02:09:35;;;;;;;9.93;4.90;;;;;;;11.61;64.99;99504.13;2502623;28;20102;-81
2024/03/23 02:10:49;;;;;;;6.28;4.18;;;;;;;11.62;64.91;99503.22;2489838;29;20027;-84
2024/03/23 02:12:03;;;;;;;6.40;4.22;;;;;;;11.67;64.99;99507.41;2494935;28;20443;-82
2024/03/23 02:13:17;;;;;;;6.32;4.85;;;;;;;11.71;64.66;99510.78;2491690;29;20028;-83
2024/03/23 02:14:32;;;;;;;6.07;5.45;;;;;;;11.76;64.73;99511.47;2495340;28;20034;-83
2024/03/23 02:15:45;;;;;;;10.38;5.63;;;;;;;11.79;64.57;99511.38;2492708;28;20035;-82
2024/03/23 02:16:58;;;;;;;8.80;5.93;;;;;;;11.85;64.56;99518.16;2497916;28;20616;-83
2024/03/23 02:18:12;;;;;;;12.93;9.43;;;;;;;11.90;64.37;99509.31;2491680;29;20027;-82
2024/03/23 02:19:25;;;;;;;7.93;5.32;;;;;;;11.94;64.16;99512.69;2503537;28;20041;-82
2024/03/23 02:20:38;;;;;;;8.27;4.70;;;;;;;11.98;64.05;99502.09;2502894;28;20115;-84
2024/03/23 02:21:51;;;;;;;4.80;4.40;;;;;;;12.00;63.98;99510.75;2498752;28;20023;-84
2024/03/23 02:23:08;;;;;;;6.15;5.55;;;;;;;12.03;63.97;99499.31;2511231;28;20023;-83
2024/03/23 02:24:21;;;;;;;4.15;3.75;;;;;;;12.07;64.21;99505.28;2497332;29;20030;-84
2024/03/23 02:25:34;;;;;;;7.78;5.35;;;;;;;12.09;63.79;99500.88;2495488;28;20025;-84
2024/03/23 02:26:48;;;;;;;8.13;4.05;;;;;;;12.13;63.75;99502.47;2497254;29;20066;-83
2024/03/23 02:28:01;;;;;;;6.47;5.85;;;;;;;12.13;63.83;99492.00;2493725;28;20133;-84
2024/03/23 02:29:15;;;;;;;7.93;5.32;;;;;;;12.15;63.46;99488.44;2499904;28;20033;-83
2024/03/23 02:30:28;;;;;;;6.18;4.63;;;;;;;12.14;63.54;99486.72;2505949;28;20494;-84
2024/03/23 02:31:41;;;;;;;9.15;4.95;;;;;;;12.15;63.53;99493.66;2498809;28;20027;-85
2024/03/23 02:32:54;;;;;;;6.13;4.80;;;;;;;12.16;63.38;99484.06;2498424;28;20023;-83
2024/03/23 02:34:08;;;;;;;10.23;5.57;;;;;;;12.16;63.60;99484.94;2485189;29;20027;-82
2024/03/23 02:35:21;;;;;;;5.63;4.40;;;;;;;12.18;63.34;99482.25;2488129;28;20056;-83
2024/03/23 02:36:34;;;;;;;7.00;4.50;;;;;;;12.18;63.37;99483.13;2483209;29;20031;-84
2024/03/23 02:37:50;;;;;;;6.85;4.78;;;;;;;12.19;63.42;99481.34;2495530;28;20023;-84
2024/03/23 02:39:03;;;;;;;4.78;3.97;;;;;;;12.19;63.48;99484.81;2516937;28;20030;-84
2024/03/23 02:40:17;;;;;;;8.75;5.35;;;;;;;12.20;63.22;99480.44;2489524;29;20031;-82
2024/03/23 02:41:30;;;;;;;6.13;4.57;;;;;;;12.19;63.32;99489.19;2482706;29;20034;-83
2024/03/23 02:42:43;;;;;;;6.82;5.65;;;;;;;12.18;63.54;99487.47;2480920;29;20024;-83
2024/03/23 02:43:57;;;;;;;5.25;4.75;;;;;;;12.18;63.43;99484.84;2498692;28;20058;-84
2024/03/23 02:45:10;;;;;;;6.40;5.45;;;;;;;12.17;63.70;99483.16;2502557;28;20031;-84
2024/03/23 02:46:23;;;;;;;4.80;4.40;;;;;;;12.17;63.61;99491.00;2503642;28;20507;-84
2024/03/23 02:47:37;;;;;;;5.63;4.78;;;;;;;12.16;63.50;99490.16;2506680;28;20065;-83
2024/03/23 02:48:50;;;;;;;5.95;5.18;;;;;;;12.17;63.78;99491.84;2502059;28;20512;-84
2024/03/23 02:50:04;;;;;;;6.57;4.60;;;;;;;12.19;63.51;99490.03;2515153;28;20419;-84
2024/03/23 02:51:17;;;;;;;5.60;4.93;;;;;;;12.19;63.67;99490.03;2512899;28;20022;-83
2024/03/23 02:52:30;;;;;;;6.97;4.60;;;;;;;12.20;63.60;99496.13;2504456;28;20094;-83
2024/03/23 02:53:44;;;;;;;5.78;4.95;;;;;;;12.19;63.50;99494.44;2498996;28;20033;-83
2024/03/23 02:54:57;;;;;;;8.30;5.38;;;;;;;12.19;63.59;99489.19;2491577;29;20409;-84
2024/03/23 02:56:15;;;;;;;6.43;5.40;;;;;;;12.19;63.76;99492.66;2501661;28;20049;-83
2024/03/23 02:57:29;;;;;;;9.45;5.35;;;;;;;12.20;63.63;99489.13;2518530;28;20558;-82
2024/03/23 02:58:43;;;;;;;6.45;5.75;;;;;;;12.20;63.75;99496.97;2498001;29;20030;-81
2024/03/23 02:59:56;;;;;;;7.07;4.85;;;;;;;12.20;63.82;99493.50;2494048;28;20471;-84
2024/03/23 03:01:09;;;;;;;10.32;5.53;;;;;;;12.18;63.95;99490.97;2491068;29;20037;-82
2024/03/23 03:02:22;;;;;;;7.43;5.68;;;;;;;12.17;63.90;99493.63;2486866;29;20027;-83
2024/03/23 03:03:35;;;;;;;9.48;6.68;;;;;;;12.14;64.02;99484.13;2491296;28;20429;-82
2024/03/23 03:04:49;;;;;;;9.00;4.97;;;;;;;12.11;64.22;99484.22;2499156;29;20019;-83
2024/03/23 03:06:02;;;;;;;6.70;5.97;;;;;;;12.09;64.13;99483.41;2498952;29;20504;-84
2024/03/23 03:07:16;;;;;;;8.50;6.70;;;;;;;12.07;64.10;99487.84;2492326;28;20023;-84
2024/03/23 03:08:29;;;;;;;8.50;5.55;;;;;;;12.05;64.52;99492.25;2498845;29;20031;-83
2024/03/23 03:09:43;;;;;;;15.75;6.65;;;;;;;12.00;64.60;99489.81;2503658;28;20050;-83
2024/03/23 03:10:56;;;;;;;7.65;5.78;;;;;;;11.98;64.64;99488.16;2499561;28;20035;-82
2024/03/23 03:12:09;;;;;;;6.70;5.55;;;;;;;11.94;64.83;99491.75;2496493;28;20035;-83
2024/03/23 03:13:22;;;;;;;12.60;5.90;;;;;;;11.92;65.02;99489.19;2507234;28;20077;-82
2024/03/23 03:14:35;;;;;;;10.85;6.35;;;;;;;11.92;65.10;99490.94;2507405;28;20027;-82
2024/03/23 03:15:49;;;;;;;6.75;6.00;;;;;;;11.92;65.26;99493.56;2497116;28;20027;-84
2024/03/23 03:17:02;;;;;;;8.73;6.45;;;;;;;11.94;65.16;99492.63;2498683;28;20038;-84
2024/03/23 03:18:15;;;;;;;9.32;5.95;;;;;;;11.95;65.42;99491.72;2508530;28;20500;-83
2024/03/23 03:19:29;;;;;;;9.15;6.68;;;;;;;11.97;65.13;99494.28;2501338;28;20031;-83
2024/03/23 03:20:43;;;;;;;7.07;5.50;;;;;;;12.00;65.21;99488.94;2501615;28;20025;-82
2024/03/23 03:21:57;;;;;;;7.20;5.60;;;;;;;12.01;65.01;99490.66;2511667;28;20116;-83
2024/03/23 03:23:10;;;;;;;6.60;5.63;;;;;;;12.02;65.17;99488.91;2498431;28;20046;-84
2024/03/23 03:24:23;;;;;;;7.00;6.32;;;;;;;12.06;65.12;99490.53;2496435;28;20066;-84
2024/03/23 03:25:36;;;;;;;6.80;6.20;;;;;;;12.06;65.13;99483.53;2501231;28;20030;-83
2024/03/23 03:26:49;;;;;;;11.63;8.48;;;;;;;12.07;65.26;99479.13;2499453;28;20058;-82
2024/03/23 03:28:03;;;;;;;9.60;8.07;;;;;;;12.09;65.08;99486.03;2511386;28;20033;-81
2024/03/23 03:29:17;;;;;;;10.45;8.50;;;;;;;12.10;64.77;99469.41;2512209;28;20031;-83
2024/03/23 03:30:30;;;;;;;11.85;9.02;;;;;;;12.15;64.78;99467.50;2504945;28;20030;-83
2024/03/23 03:31:44;;;;;;;11.82;8.93;;;;;;;12.16;64.63;99464.00;2496907;28;20035;-82
2024/03/23 03:32:57;;;;;;;12.07;10.18;;;;;;;12.20;64.61;99465.59;2502921;28;20547;-82
2024/03/23 03:34:10;;;;;;;11.57;9.20;;;;;;;12.22;64.64;99461.16;2511835;28;20428;-84
2024/03/23 03:35:23;;;;;;;12.18;10.05;;;;;;;12.26;64.14;99461.06;2505273;28;20114;-83
2024/03/23 03:36:37;;;;;;;15.13;10.43;;;;;;;12.27;64.03;99463.63;2511518;28;20534;-83
2024/03/23 03:37:50;;;;;;;12.65;10.93;;;;;;;12.28;63.82;99467.94;2516230;28;20022;-82
2024/03/23 03:39:04;;;;;;;11.75;9.63;;;;;;;12.29;63.73;99466.16;2507726;28;20029;-83
2024/03/23 03:40:17;;;;;;;14.68;11.27;;;;;;;12.31;63.61;99473.06;2501132;28;20030;-82
2024/03/23 03:41:31;;;;;;;14.07;10.57;;;;;;;12.32;63.38;99473.94;2503147;28;20027;-82
2024/03/23 03:42:44;;;;;;;13.63;12.30;;;;;;;12.33;63.34;99475.63;2501124;28;20125;-83
2024/03/23 03:44:02;;;;;;;14.43;11.48;;;;;;;12.33;63.30;99471.25;2501493;28;20125;-83
2024/03/23 03:45:15;;;;;;;11.80;10.63;;;;;;;12.35;62.82;99473.81;2511185;28;20030;-81
2024/03/23 03:46:28;;;;;;;14.38;11.55;;;;;;;12.35;62.94;99466.81;2505211;28;20053;-81
2024/03/23 03:47:42;;;;;;;14.40;11.02;;;;;;;12.36;62.86;99472.91;2498315;28;20030;-82
2024/03/23 03:48:55;;;;;;;15.70;10.15;;;;;;;12.36;62.77;99476.38;2497746;29;20456;-81
2024/03/23 03:50:08;;;;;;;19.13;12.05;;;;;;;12.38;62.94;99471.94;2500405;28;20027;-81
2024/03/23 03:51:22;;;;;;;12.48;11.15;;;;;;;12.37;62.83;99469.41;2510072;28;20077;-81
2024/03/23 03:52:35;;;;;;;16.88;12.07;;;;;;;12.38;62.85;99465.88;2506955;28;20026;-83
2024/03/23 03:53:49;;;;;;;14.38;11.60;;;;;;;12.38;62.67;99478.94;2510575;28;20018;-83
2024/03/23 03:55:02;;;;;;;13.77;12.02;;;;;;;12.37;62.68;99485.09;2506152;28;20031;-82
2024/03/23 03:56:16;;;;;;;15.30;12.40;;;;;;;12.36;62.61;99480.75;2506078;28;20033;-83
2024/03/23 03:57:29;;;;;;;13.25;11.82;;;;;;;12.36;62.44;99476.38;2510080;28;20023;-81
2024/03/23 03:58:43;;;;;;;14.00;11.18;;;;;;;12.34;62.28;99488.69;2515819;28;20033;-81
2024/03/23 03:59:56;;;;;;;14.07;11.77;;;;;;;12.33;62.40;99486.94;2504197;28;20448;-83
2024/03/23 04:01:09;;;;;;;11.98;10.15;;;;;;;12.32;62.17;99476.56;2500996;28;20066;-83
2024/03/23 04:02:22;;;;;;;14.90;13.18;;;;;;;12.32;62.57;99481.78;2515698;28;20038;-82
2024/03/23 04:03:36;;;;;;;17.63;12.25;;;;;;;12.30;62.21;99475.75;2501494;28;20031;-81
2024/03/23 04:04:49;;;;;;;15.27;12.30;;;;;;;12.28;62.15;99467.94;2486863;29;20061;-83
2024/03/23 04:06:03;;;;;;;14.38;12.98;;;;;;;12.27;62.09;99475.84;2487493;29;20023;-82
2024/03/23 04:07:17;;;;;;;16.90;12.80;;;;;;;12.24;62.19;99468.97;2483313;29;20076;-82
2024/03/23 04:08:30;;;;;;;14.70;13.02;;;;;;;12.21;62.13;99475.16;2501304;28;20030;-82
2024/03/23 04:09:43;;;;;;;15.30;12.40;;;;;;;12.20;62.36;99476.06;2503335;28;20086;-82
2024/03/23 04:10:57;;;;;;;15.85;11.93;;;;;;;12.18;62.39;99472.66;2497176;28;20030;-83
2024/03/23 04:12:10;;;;;;;16.98;13.82;;;;;;;12.17;62.54;99472.69;2501236;28;20041;-83
2024/03/23 04:13:23;;;;;;;19.88;14.00;;;;;;;12.15;62.31;99462.28;2499854;28;20039;-80
2024/03/23 04:14:36;;;;;;;14.63;12.70;;;;;;;12.13;62.29;99466.72;2494566;28;20022;-82
2024/03/23 04:15:56;;;;;;;19.15;14.68;;;;;;;12.10;62.03;99464.19;2502844;28;20251;-81
2024/03/23 04:17:09;;;;;;;15.13;13.60;;;;;;;12.09;62.43;99459.88;2507234;28;20023;-82
2024/03/23 04:18:23;;;;;;;17.67;12.80;;;;;;;12.08;62.37;99462.53;2507499;28;20028;-81
2024/03/23 04:19:37;;;;;;;15.40;13.20;;;;;;;12.06;62.68;99467.84;2510684;28;20049;-81
2024/03/23 04:20:50;;;;;;;18.40;12.85;;;;;;;12.05;62.60;99460.88;2504789;28;20027;-83
2024/03/23 04:22:04;;;;;;;17.48;14.43;;;;;;;12.03;62.73;99467.94;2508443;28;20022;-81
2024/03/23 04:23:18;;;;;;;15.48;13.40;;;;;;;12.01;62.87;99467.13;2502905;28;20038;-82
2024/03/23 04:24:31;;;;;;;14.55;12.35;;;;;;;12.00;62.93;99474.13;2515160;28;20026;-82
2024/03/23 04:25:44;;;;;;;25.83;15.18;;;;;;;11.97;63.10;99468.97;2507571;28;20075;-83
2024/03/23 04:26:58;;;;;;;19.30;12.88;;;;;;;11.95;63.44;99480.38;2506903;28;20053;-81
2024/03/23 04:28:11;;;;;;;16.85;14.85;;;;;;;11.91;63.38;99481.41;2507545;28;20109;-82
2024/03/23 04:29:25;;;;;;;16.58;13.52;;;;;;;11.89;63.71;99485.84;2491167;29;20079;-83
2024/03/23 04:30:38;;;;;;;18.75;13.07;;;;;;;11.87;63.45;99490.25;2495786;28;20078;-83
2024/03/23 04:31:51;;;;;;;16.13;11.00;;;;;;;11.83;64.00;99486.84;2502048;28;20026;-82
2024/03/23 04:33:05;;;;;;;14.70;13.20;;;;;;;11.78;64.05;99494.84;2507627;28;20031;-82
2024/03/23 04:34:18;;;;;;;17.77;14.15;;;;;;;11.73;64.30;99491.53;2497352;29;20026;-83
2024/03/23 04:35:31;;;;;;;14.40;12.00;;;;;;;11.70;64.37;99501.22;2502199;28;20030;-82
2024/03/23 04:36:45;;;;;;;15.25;12.68;;;;;;;11.66;64.52;99505.69;2513427;28;20035;-82
2024/03/23 04:38:01;;;;;;;13.13;11.20;;;;;;;11.63;64.50;99505.78;2508083;28;20059;-81
2024/03/23 04:39:14;;;;;;;15.25;12.70;;;;;;;11.59;64.69;99493.72;2506646;28;20030;-83
2024/03/23 04:40:27;;;;;;;14.82;10.68;;;;;;;11.55;64.79;99500.78;2496919;28;20464;-81
2024/03/23 04:41:40;;;;;;;16.92;12.38;;;;;;;11.52;64.75;99503.50;2494923;28;20057;-83
2024/03/23 04:42:54;;;;;;;15.23;13.02;;;;;;;11.51;65.10;99496.59;2500740;28;20023;-81
2024/03/23 04:44:07;;;;;;;13.77;12.35;;;;;;;11.48;65.10;99496.66;2500574;28;20038;-81
2024/03/23 04:45:20;;;;;;;13.43;11.70;;;;;;;11.47;65.27;99505.41;2506703;28;20144;-83
2024/03/23 04:46:33;;;;;;;14.70;13.18;;;;;;;11.44;65.43;99500.28;2501207;28;20035;-83
2024/03/23 04:47:47;;;;;;;15.65;14.10;;;;;;;11.41;65.53;99494.28;2499862;28;20030;-85
2024/03/23 04:49:00;;;;;;;13.88;12.32;;;;;;;11.35;65.82;99496.16;2514884;28;20033;-84
2024/03/23 04:50:14;;;;;;;15.25;12.43;;;;;;;11.31;66.20;99493.72;2519524;28;20022;-83
2024/03/23 04:51:27;;;;;;;12.88;11.57;;;;;;;11.28;66.71;99483.34;2513344;28;20042;-84
2024/03/23 04:52:40;;;;;;;16.17;13.35;;;;;;;11.23;67.38;99491.34;2510471;28;20031;-84
2024/03/23 04:53:53;;;;;;;14.25;12.07;;;;;;;11.21;67.58;99487.06;2510930;28;20061;-83
2024/03/23 04:55:07;;;;;;;14.63;11.93;;;;;;;11.18;67.79;99501.06;2495905;28;20019;-84
2024/03/23 04:56:20;;;;;;;13.85;12.05;;;;;;;11.13;67.95;99495.13;2493588;28;20026;-84
2024/03/23 04:57:34;;;;;;;14.13;11.73;;;;;;;11.09;68.09;99499.56;2502127;28;20031;-83
2024/03/23 04:58:47;;;;;;;12.73;11.43;;;;;;;11.05;68.05;99497.94;2499010;28;20026;-84
2024/03/23 05:00:00;;;;;;;16.77;11.85;;;;;;;11.02;68.04;99508.50;2492009;28;20598;-85
2024/03/23 05:01:13;;;;;;;13.63;11.57;;;;;;;10.99;68.14;99507.72;2502950;28;20038;-84
2024/03/23 05:02:27;;;;;;;13.23;10.93;;;;;;;10.96;67.89;99510.41;2490183;28;20034;-84
2024/03/23 05:03:40;;;;;;;11.77;9.35;;;;;;;10.93;67.89;99513.13;2491851;28;20052;-85
2024/03/23 05:04:54;;;;;;;9.95;8.85;;;;;;;10.90;67.79;99517.50;2499020;28;20026;-84
2024/03/23 05:06:07;;;;;;;13.75;11.25;;;;;;;10.87;67.82;99512.38;2505078;28;20507;-84
2024/03/23 05:07:21;;;;;;;11.18;7.97;;;;;;;10.86;67.71;99521.09;2505430;28;20111;-83
2024/03/23 05:08:34;;;;;;;11.60;8.52;;;;;;;10.83;67.55;99536.00;2501253;28;20113;-84
2024/03/23 05:09:48;;;;;;;10.70;9.02;;;;;;;10.81;67.62;99533.41;2504771;28;20015;-84
2024/03/23 05:11:02;;;;;;;10.70;8.32;;;;;;;10.79;67.55;99534.34;2505103;28;20022;-83
2024/03/23 05:12:15;;;;;;;9.23;6.32;;;;;;;10.76;67.12;99532.69;2508820;28;20015;-83
2024/03/23 05:13:29;;;;;;;8.43;6.80;;;;;;;10.75;67.20;99528.38;2502913;28;20026;-85
2024/03/23 05:14:42;;;;;;;9.55;6.60;;;;;;;10.73;66.64;99535.38;2502642;28;20113;-83
2024/03/23 05:15:55;;;;;;;7.22;5.57;;;;;;;10.73;66.33;99544.97;2499613;28;20035;-85
2024/03/23 05:17:08;;;;;;;6.05;4.43;;;;;;;10.70;65.58;99543.31;2485636;29;20019;-84
2024/03/23 05:18:22;;;;;;;4.25;3.85;;;;;;;10.68;65.32;99551.16;2499291;28;20027;-84
2024/03/23 05:19:35;;;;;;;4.80;4.05;;;;;;;10.67;65.10;99559.03;2507392;28;20041;-85
2024/03/23 05:20:48;;;;;;;3.50;3.20;;;;;;;10.64;64.70;99554.75;2504487;28;20085;-83
2024/03/23 05:22:01;;;;;;;2.95;2.38;;;;;;;10.64;64.21;99546.09;2504520;28;20417;-84
2024/03/23 05:23:15;;;;;;;3.00;2.70;;;;;;;10.61;63.62;99548.75;2498146;28;20034;-84
2024/03/23 05:24:28;;;;;;;2.97;1.80;;;;;;;10.60;63.71;99545.28;2488936;29;20029;-84
2024/03/23 05:25:42;;;;;;;5.03;3.33;;;;;;;10.59;63.40;99555.78;2494390;28;20630;-84
2024/03/23 05:26:56;;;;;;;4.05;2.00;;;;;;;10.56;63.31;99559.34;2498977;28;20041;-86
2024/03/23 05:28:09;;;;;;;2.35;2.15;;;;;;;10.53;63.09;99563.75;2504906;28;20042;-85
2024/03/23 05:29:22;;;;;;;2.60;2.22;;;;;;;10.51;62.64;99569.03;2496761;28;20062;-83
2024/03/23 05:30:35;;;;;;;1.70;1.60;;;;;;;10.49;63.04;99568.22;2483519;29;20031;-84
2024/03/23 05:31:51;;;;;;;1.45;1.30;;;;;;;10.46;62.94;99568.28;2479013;29;20028;-82
2024/03/23 05:33:04;;;;;;;3.15;1.60;;;;;;;10.43;63.03;99582.25;2474428;29;20055;-83
2024/03/23 05:34:18;;;;;;;1.92;1.80;;;;;;;10.40;62.89;99587.56;2490456;28;20042;-83
2024/03/23 05:35:31;;;;;;;0.90;0.90;;;;;;;10.37;62.90;99589.38;2485916;28;20031;-83
2024/03/23 05:36:45;;;;;;;3.40;1.50;;;;;;;10.32;62.86;99599.91;2491091;29;20023;-81
2024/03/23 05:37:58;;;;;;;1.48;1.13;;;;;;;10.29;62.97;99600.00;2504056;28;20030;-83
2024/03/23 05:39:11;;;;;;;1.20;1.10;;;;;;;10.26;62.86;99600.88;2496073;28;20027;-83
2024/03/23 05:40:28;;;;;;;5.00;1.20;;;;;;;10.23;63.11;99595.75;2497411;28;20031;-82
2024/03/23 05:41:41;;;;;;;1.30;1.20;;;;;;;10.22;63.11;99598.38;2511799;28;20113;-82
2024/03/23 05:42:55;;;;;;;1.05;1.00;;;;;;;10.22;63.13;99595.78;2507242;28;20023;-84